Time;durP1;ratioP1;P1;durP2;ratioP2;P2;SDS_P1;SDS_P2;PMS_P1;PMS_P2;Temp;Humidity;BMP_temperature;BMP_pressure;BME280_temperature;BME280_humidity;BME280_pressure;Samples;Min_cycle;Max_cycle;Signal;HPM_P1;HPM_P2
2023/02/28 00:01:34;;;;;;;;;37.50;33.00;;;;;-0.85;73.12;100648.34;6282229;20;2500303;-46
2023/02/28 00:04:02;;;;;;;;;44.50;34.50;;;;;-1.06;73.50;100657.09;6281573;20;2500314;-45
2023/02/28 00:06:30;;;;;;;;;42.50;35.50;;;;;-1.02;74.04;100653.63;6280149;20;2500307;-44
2023/02/28 00:08:58;;;;;;;;;38.00;33.00;;;;;-1.06;74.53;100651.84;6281511;20;2500325;-44
2023/02/28 00:11:26;;;;;;;;;42.50;33.00;;;;;-0.83;73.65;100658.91;6283918;20;2868029;-44
2023/02/28 00:13:56;;;;;;;;;44.00;33.00;;;;;-0.93;73.65;100658.88;6283775;20;2869096;-45
2023/02/28 00:16:23;;;;;;;;;41.50;32.00;;;;;-0.90;73.82;100668.56;6283067;20;2500416;-45
2023/02/28 00:18:53;;;;;;;;;51.33;35.33;;;;;-0.77;73.46;100666.81;6284825;20;2891008;-44
2023/02/28 00:21:22;;;;;;;;;40.50;32.50;;;;;-0.79;72.95;100672.09;6315330;20;2861745;-46
2023/02/28 00:23:50;;;;;;;;;36.50;29.50;;;;;-0.80;72.63;100667.69;6283053;20;2500286;-44
2023/02/28 00:26:18;;;;;;;;;40.50;33.00;;;;;-0.74;72.90;100679.97;6284628;20;2859666;-45
2023/02/28 00:28:48;;;;;;;;;42.00;35.50;;;;;-0.88;73.19;100672.06;6278875;20;2502827;-46
2023/02/28 00:31:17;;;;;;;;;39.00;35.50;;;;;-1.00;74.13;100677.31;6283180;20;2860853;-44
2023/02/28 00:33:45;;;;;;;;;39.50;32.50;;;;;-0.82;73.81;100669.44;6282119;20;2500809;-47
2023/02/28 00:36:13;;;;;;;;;44.00;32.50;;;;;-0.71;73.47;100674.72;6281975;20;2500264;-45
2023/02/28 00:38:41;;;;;;;;;40.50;32.00;;;;;-0.80;74.19;100665.03;6282660;20;2500411;-45
2023/02/28 00:41:10;;;;;;;;;47.00;39.00;;;;;-0.46;73.02;100675.59;6279335;20;2500425;-46
2023/02/28 00:43:39;;;;;;;;;46.50;36.50;;;;;-0.67;74.40;100672.06;6279058;20;2500396;-44
2023/02/28 00:46:09;;;;;;;;;50.50;36.50;;;;;-0.71;74.44;100678.25;6280758;20;2886744;-45
2023/02/28 00:48:37;;;;;;;;;45.00;35.50;;;;;-0.60;73.28;100677.38;6284737;20;2871156;-44
2023/02/28 00:51:07;;;;;;;;;46.33;36.33;;;;;-0.59;72.50;100680.00;6280547;20;2881582;-45
2023/02/28 00:53:37;;;;;;;;;52.67;42.67;;;;;-0.60;72.88;100674.75;6314193;20;2883668;-45
2023/02/28 00:56:06;;;;;;;;;42.50;38.00;;;;;-0.48;72.69;100680.00;6314454;20;2866945;-46
2023/02/28 00:58:35;;;;;;;;;51.33;39.67;;;;;-0.46;72.18;100670.31;6284063;20;2884792;-44
2023/02/28 01:01:05;;;;;;;;;52.67;40.67;;;;;-0.61;72.78;100667.69;6311558;20;3641039;-46
2023/02/28 01:03:34;;;;;;;;;51.00;41.50;;;;;-0.32;72.09;100679.09;6315475;20;2874253;-45
2023/02/28 01:06:02;;;;;;;;;52.00;39.00;;;;;-0.42;72.04;100680.00;6276055;20;2526360;-46
2023/02/28 01:08:31;;;;;;;;;49.00;42.00;;;;;-0.48;72.73;100678.22;6283825;20;2860701;-46
2023/02/28 01:11:14;;;;;;;;;58.33;44.33;;;;;-0.48;73.92;100672.94;6280716;20;2875313;-45
2023/02/28 01:13:44;;;;;;;;;61.00;47.00;;;;;-0.59;73.94;100679.13;6308894;20;2869064;-45
2023/02/28 01:16:15;;;;;;;;;45.00;37.00;;;;;-0.37;72.93;100674.69;6280625;20;2866982;-48
2023/02/28 01:18:44;;;;;;;;;56.00;43.00;;;;;-0.30;72.68;100676.47;6284493;20;2874309;-49
2023/02/28 01:21:18;;;;;;;;;42.50;36.00;;;;;-0.56;73.06;100674.72;6277725;20;2853429;-46
2023/02/28 01:23:48;;;;;;;;;52.00;43.00;;;;;-0.63;72.70;100682.63;6283645;20;2521165;-45
2023/02/28 01:26:23;;;;;;;;;63.33;43.67;;;;;-0.42;72.65;100692.28;6312889;20;2868046;-46
2023/02/28 01:28:53;;;;;;;;;44.50;38.50;;;;;-0.49;72.27;100680.88;6312946;20;2863960;-44
2023/02/28 01:31:22;;;;;;;;;51.00;36.50;;;;;-0.49;73.88;100686.16;6276493;20;2500254;-44
2023/02/28 01:33:51;;;;;;;;;46.50;35.00;;;;;-0.57;74.02;100682.66;6283052;20;2874341;-44
2023/02/28 01:36:24;;;;;;;;;43.00;35.50;;;;;-0.49;73.21;100681.75;6282042;20;2861743;-45
2023/02/28 01:38:53;;;;;;;;;41.00;36.50;;;;;-0.43;73.33;100680.88;6281432;20;2500443;-45
2023/02/28 01:41:32;;;;;;;;;43.50;34.00;;;;;-0.35;72.08;100680.84;6272984;20;2502450;-45
2023/02/28 01:44:58;;;;;;;;;48.00;37.50;;;;;-0.41;73.20;100679.13;6278408;20;2500422;-45
2023/02/28 01:47:38;;;;;;;;;41.00;29.00;;;;;-0.29;71.90;100687.03;6283599;20;3588867;-44
2023/02/28 01:50:16;;;;;;;;;49.50;42.50;;;;;-0.15;71.65;100675.56;6277708;20;2863982;-45
2023/02/28 01:52:47;;;;;;;;;50.00;43.50;;;;;-0.26;71.58;100681.75;6277502;20;2861996;-46
2023/02/28 01:55:19;;;;;;;;;58.50;44.50;;;;;-0.43;72.10;100680.88;6280652;20;2860719;-44
2023/02/28 01:57:55;;;;;;;;;55.00;44.00;;;;;-0.24;71.83;100671.16;6280105;20;2871166;-46
2023/02/28 02:00:27;;;;;;;;;48.00;41.00;;;;;-0.24;71.99;100681.72;6278081;20;2864858;-45
2023/02/28 02:03:01;;;;;;;;;57.50;47.50;;;;;-0.23;71.58;100681.72;6278736;20;2504459;-45
2023/02/28 02:05:32;;;;;;;;;46.67;37.00;;;;;-0.20;71.32;100667.66;6279160;20;2879443;-45
2023/02/28 02:08:12;;;;;;;;;44.50;36.50;;;;;-0.35;72.54;100680.84;6311589;20;2862814;-44
2023/02/28 02:10:53;;;;;;;;;49.00;40.00;;;;;-0.10;71.69;100679.06;6275996;20;2865909;-44
2023/02/28 02:14:14;;;;;;;;;50.00;36.50;;;;;-0.35;71.97;100678.22;6276003;20;2500302;-44
2023/02/28 02:17:11;;;;;;;;;41.00;37.00;;;;;-0.14;71.85;100669.41;6279253;20;2500292;-44
2023/02/28 02:20:34;;;;;;;;;35.50;34.50;;;;;-0.12;71.57;100672.91;6284292;20;2500428;-46
2023/02/28 02:23:47;;;;;;;;;46.75;38.25;;;;;-0.13;71.45;100684.34;6285126;20;3622284;-44
2023/02/28 02:26:37;;;;;;;;;40.00;37.50;;;;;-0.04;71.82;100677.28;6318049;20;2864900;-45
2023/02/28 02:30:07;;;;;;;;;54.33;41.33;;;;;-0.03;71.75;100675.50;6288048;20;2883701;-46
2023/02/28 02:33:45;;;;;;;;;57.33;39.00;;;;;-0.12;72.13;100670.28;6316748;20;2885835;-46
2023/02/28 02:36:21;;;;;;;;;50.00;39.50;;;;;-0.01;71.39;100671.13;6311092;20;2502447;-44
2023/02/28 02:39:59;;;;;;;;;40.50;33.50;;;;;-0.09;71.87;100670.25;6284827;20;2500350;-44
2023/02/28 02:42:42;;;;;;;;;36.00;32.50;;;;;-0.22;72.67;100667.63;6278770;20;2500269;-46
2023/02/28 02:45:28;;;;;;;;;39.50;34.00;;;;;-0.12;73.30;100673.78;6282250;20;2500310;-47
2023/02/28 02:48:00;;;;;;;;;47.50;34.50;;;;;-0.08;72.82;100677.28;6285332;20;2865942;-46
2023/02/28 02:50:41;;;;;;;;;47.67;34.67;;;;;-0.06;72.24;100676.41;6279426;20;3621148;-47
2023/02/28 02:53:11;;;;;;;;;39.50;35.50;;;;;-0.12;73.28;100680.84;6313108;20;2500304;-49
2023/02/28 02:55:47;;;;;;;;;35.00;28.67;;;;;-0.12;73.21;100683.47;6285011;20;3599251;-48
2023/02/28 02:58:22;;;;;;;;;34.00;29.50;;;;;-0.03;72.18;100680.78;6282467;20;2500291;-50
2023/02/28 03:00:59;;;;;;;;;42.00;28.50;;;;;-0.04;72.13;100684.34;6282044;20;2861796;-46
2023/02/28 03:03:29;;;;;;;;;48.50;33.50;;;;;0.03;71.97;100682.53;6281572;20;2500827;-45
2023/02/28 03:06:01;;;;;;;;;35.00;26.00;;;;;-0.32;72.53;100663.25;6280122;20;2851459;-45
2023/02/28 03:08:37;;;;;;;;;34.33;27.33;;;;;0.09;71.91;100680.78;6281248;20;3583638;-49
2023/02/28 03:11:14;;;;;;;;;33.00;30.00;;;;;0.11;71.52;100671.09;6276581;20;2500294;-47
2023/02/28 03:14:26;;;;;;;;;37.50;31.00;;;;;-0.13;71.86;100682.59;6276328;20;2852363;-48
2023/02/28 03:17:14;;;;;;;;;44.00;32.00;;;;;0.03;71.83;100680.81;6276212;20;2500430;-46
2023/02/28 03:20:04;;;;;;;;;34.50;30.50;;;;;-0.13;71.89;100679.97;6281106;20;2846127;-44
2023/02/28 03:23:15;;;;;;;;;23.67;18.33;;;;;-0.04;71.79;100677.28;6283232;20;2815014;-47
2023/02/28 03:26:07;;;;;;;;;33.00;31.00;;;;;0.07;71.97;100674.63;6313516;20;2500363;-47
2023/02/28 03:28:49;;;;;;;;;33.00;23.50;;;;;0.18;71.84;100678.09;6277681;20;2500300;-49
2023/02/28 03:31:37;;;;;;;;;38.00;30.00;;;;;-0.11;73.01;100682.56;6280281;20;2500304;-45
2023/02/28 03:34:24;;;;;;;;;33.00;29.00;;;;;0.10;72.64;100686.94;6280549;20;2500281;-46
2023/02/28 03:36:59;;;;;;;;;28.00;28.00;;;;;-0.01;72.09;100684.31;6280030;20;2500281;-47
2023/02/28 03:39:42;;;;;;;;;40.00;36.00;;;;;-0.20;72.63;100678.22;6279459;20;2500412;-45
2023/02/28 03:42:22;;;;;;;;;37.67;34.33;;;;;-0.22;73.48;100680.84;6283995;20;3594067;-47
2023/02/28 03:45:09;;;;;;;;;37.00;30.00;;;;;-0.09;72.78;100680.81;6280440;20;2500314;-44
2023/02/28 03:48:05;;;;;;;;;6.00;4.00;;;;;0.19;72.42;100682.50;6286211;20;2748283;-44
2023/02/28 03:50:45;;;;;;;;;36.00;32.50;;;;;0.15;72.40;100686.03;6313048;20;2857561;-46
2023/02/28 03:53:18;;;;;;;;;40.50;33.00;;;;;-0.04;72.55;100673.78;6280746;20;2500283;-48
2023/02/28 03:55:58;;;;;;;;;40.50;35.50;;;;;0.15;72.13;100672.81;6285844;20;2860713;-44
2023/02/28 03:58:44;;;;;;;;;53.00;41.00;;;;;0.07;72.79;100679.91;6282530;20;2881722;-47
2023/02/28 04:01:28;;;;;;;;;55.67;42.33;;;;;0.08;73.04;100673.75;6311012;20;2876356;-47
2023/02/28 04:03:58;;;;;;;;;58.67;42.67;;;;;0.09;72.83;100675.50;6314185;20;2885736;-45
2023/02/28 04:06:27;;;;;;;;;49.00;37.50;;;;;0.05;72.99;100670.22;6312438;20;2876394;-45
2023/02/28 04:08:55;;;;;;;;;38.50;32.00;;;;;-0.06;74.31;100665.84;6282644;20;2847305;-48
2023/02/28 04:11:54;;;;;;;;;61.25;45.25;;;;;0.04;74.68;100669.34;6281003;20;3631695;-46
2023/02/28 04:14:24;;;;;;;;;49.50;40.00;;;;;0.02;75.56;100662.31;6314227;20;2869094;-48
2023/02/28 04:16:52;;;;;;;;;64.50;48.00;;;;;0.06;75.31;100662.31;6280094;20;2499279;-46
2023/02/28 04:19:22;;;;;;;;;111.33;82.67;;;;;-0.08;75.60;100656.16;6284566;20;3694001;-45
2023/02/28 04:21:53;;;;;;;;;79.00;58.00;;;;;-0.09;75.66;100655.28;6282225;20;2887929;-48
2023/02/28 04:24:27;;;;;;;;;43.50;40.50;;;;;-0.11;76.09;100656.19;6311570;20;2862875;-46
2023/02/28 04:26:58;;;;;;;;;47.00;39.50;;;;;-0.13;76.74;100653.56;6284079;20;2874331;-45
2023/02/28 04:29:30;;;;;;;;;43.00;35.50;;;;;-0.20;77.12;100650.94;6282991;20;2857684;-45
2023/02/28 04:32:01;;;;;;;;;54.50;41.00;;;;;-0.09;77.26;100652.66;6283423;20;2866104;-46
2023/02/28 04:34:32;;;;;;;;;47.50;41.00;;;;;-0.11;77.96;100650.91;6284565;20;2862877;-48
2023/02/28 04:37:02;;;;;;;;;67.50;53.50;;;;;0.15;77.55;100654.34;6284028;20;2858676;-44
2023/02/28 04:39:42;;;;;;;;;34.00;31.00;;;;;0.14;75.25;100652.59;6281720;20;3580592;-48
2023/02/28 04:42:11;;;;;;;;;33.50;32.50;;;;;0.18;74.65;100654.31;6277724;20;2500337;-45
2023/02/28 04:44:39;;;;;;;;;34.00;28.00;;;;;0.29;74.44;100651.69;6283293;20;2858790;-45
2023/02/28 04:47:08;;;;;;;;;35.00;30.00;;;;;0.21;73.91;100649.06;6282758;20;2854578;-49
2023/02/28 04:49:36;;;;;;;;;30.50;21.00;;;;;0.08;74.27;100655.28;6277730;20;2500302;-46
2023/02/28 04:52:04;;;;;;;;;28.50;24.50;;;;;-0.03;74.52;100654.41;6280691;20;2500338;-49
2023/02/28 04:54:33;;;;;;;;;31.00;25.33;;;;;-0.04;74.75;100650.88;6281042;20;3581552;-45
2023/02/28 04:57:01;;;;;;;;;15.00;13.00;;;;;-0.01;74.52;100650.00;6284311;20;2791987;-45
2023/02/28 04:59:29;;;;;;;;;27.50;27.00;;;;;-0.13;75.03;100650.94;6274536;20;2500309;-46
2023/02/28 05:01:56;;;;;;;;;26.00;26.00;;;;;-0.16;75.40;100647.41;6278828;20;2500393;-46
2023/02/28 05:04:25;;;;;;;;;23.33;21.67;;;;;-0.12;75.57;100649.16;6281740;20;3580457;-45
2023/02/28 05:06:53;;;;;;;;;31.00;30.00;;;;;0.09;74.91;100649.09;6278600;20;2500440;-47
2023/02/28 05:09:21;;;;;;;;;26.50;26.00;;;;;0.02;74.91;100651.75;6272848;20;2500324;-45
2023/02/28 05:11:49;;;;;;;;;27.50;22.50;;;;;-0.11;75.15;100653.53;6282940;20;2500454;-46
2023/02/28 05:14:16;;;;;;;;;22.50;20.50;;;;;-0.06;75.34;100644.72;6284404;20;2825302;-44
2023/02/28 05:16:44;;;;;;;;;31.00;28.00;;;;;0.08;75.21;100647.34;6284138;20;2844303;-50
2023/02/28 05:19:13;;;;;;;;;33.00;30.00;;;;;0.01;75.57;100645.59;6275725;20;3591928;-45
2023/02/28 05:21:53;;;;;;;;;34.00;29.00;;;;;-0.13;76.30;100647.38;6274631;20;2500336;-45
2023/02/28 05:24:24;;;;;;;;;35.00;26.00;;;;;-0.12;76.30;100646.53;6277634;20;2500285;-45
2023/02/28 05:26:54;;;;;;;;;35.50;29.50;;;;;0.03;75.89;100654.41;6281986;20;2858728;-46
2023/02/28 05:29:23;;;;;;;;;33.00;27.00;;;;;-0.02;75.45;100654.41;6281020;20;2835723;-47
2023/02/28 05:31:51;;;;;;;;;32.50;27.50;;;;;-0.09;76.19;100654.44;6276425;20;2500348;-46
2023/02/28 05:34:19;;;;;;;;;29.00;25.50;;;;;-0.10;76.76;100658.84;6277979;20;2500347;-46
2023/02/28 05:36:47;;;;;;;;;34.00;28.00;;;;;0.17;75.98;100662.28;6278077;20;2500376;-45
2023/02/28 05:39:15;;;;;;;;;30.50;25.00;;;;;0.03;75.60;100662.31;6278419;20;2500311;-44
2023/02/28 05:41:43;;;;;;;;;41.00;33.00;;;;;0.02;76.09;100665.81;6279138;20;2500379;-46
2023/02/28 05:44:12;;;;;;;;;37.00;29.00;;;;;0.25;75.60;100675.44;6280095;20;2500281;-45
2023/02/28 05:46:41;;;;;;;;;40.00;33.67;;;;;0.14;75.40;100665.81;6283297;20;3596549;-46
2023/02/28 05:49:08;;;;;;;;;31.00;26.50;;;;;0.24;75.62;100673.69;6279516;20;2498434;-44
2023/02/28 05:51:39;;;;;;;;;27.00;24.50;;;;;0.06;75.34;100670.22;6272129;20;2500336;-46
2023/02/28 05:54:08;;;;;;;;;35.00;27.50;;;;;0.03;75.95;100670.25;6279352;20;2500237;-47
2023/02/28 05:56:38;;;;;;;;;29.00;24.00;;;;;0.17;75.41;100673.72;6277559;20;2500361;-44
2023/02/28 05:59:07;;;;;;;;;27.00;27.00;;;;;0.19;75.78;100676.34;6277878;20;2854442;-45
2023/02/28 06:01:47;;;;;;;;;30.00;28.00;;;;;0.12;75.64;100679.88;6274036;20;2500285;-46
2023/02/28 06:04:20;;;;;;;;;28.00;27.00;;;;;0.20;75.82;100681.63;6277119;20;2500378;-46
2023/02/28 06:06:59;;;;;;;;;38.50;29.50;;;;;0.34;75.25;100684.22;6283736;20;2867343;-45
2023/02/28 06:09:27;;;;;;;;;30.00;23.00;;;;;0.31;75.14;100684.22;6279445;20;2500392;-46
2023/02/28 06:11:59;;;;;;;;;27.00;23.50;;;;;0.33;75.18;100687.72;6283293;20;2846114;-47
2023/02/28 06:14:27;;;;;;;;;38.00;35.00;;;;;0.43;75.09;100697.38;6277021;20;2500292;-45
2023/02/28 06:16:55;;;;;;;;;54.33;37.33;;;;;0.73;73.89;100697.25;6280194;20;2888924;-45
2023/02/28 06:19:26;;;;;;;;;38.00;30.50;;;;;0.48;74.37;100702.66;6310444;20;2500287;-44
2023/02/28 06:21:56;;;;;;;;;34.50;31.50;;;;;0.50;73.84;100708.81;6277586;20;2500288;-45
2023/02/28 06:24:31;;;;;;;;;49.67;40.00;;;;;0.64;74.46;100714.91;6281455;20;2870166;-44
2023/02/28 06:27:04;;;;;;;;;37.50;33.50;;;;;1.00;72.62;100710.34;6313547;20;2855570;-45
2023/02/28 06:29:35;;;;;;;;;40.00;32.00;;;;;0.93;72.18;100715.66;6282387;20;2862760;-44
2023/02/28 06:32:03;;;;;;;;;38.00;32.00;;;;;1.33;70.88;100713.63;6277892;20;2500726;-44
2023/02/28 06:34:36;;;;;;;;;59.33;47.67;;;;;1.39;70.13;100708.28;6279611;20;2859865;-45
2023/02/28 06:37:04;;;;;;;;;21.00;17.50;;;;;1.48;68.92;100720.59;6307934;20;2500307;-47
2023/02/28 06:39:33;;;;;;;;;24.50;24.50;;;;;1.59;69.19;100723.13;6281214;20;2834783;-43
2023/02/28 06:42:00;;;;;;;;;30.00;28.50;;;;;1.65;67.99;100725.72;6276574;20;2500536;-45
2023/02/28 06:44:34;;;;;;;;;34.00;27.00;;;;;1.84;67.95;100726.44;6281336;20;2851412;-43
2023/02/28 06:47:05;;;;;;;;;30.50;25.00;;;;;1.94;66.29;100725.47;6280710;20;2498180;-44
2023/02/28 06:49:36;;;;;;;;;126.67;105.00;;;;;1.98;69.10;100730.72;6278831;20;3712891;-46
2023/02/28 06:52:05;;;;;;;;;46.00;41.00;;;;;2.15;66.23;100725.25;6277313;20;2866170;-44
2023/02/28 06:54:33;;;;;;;;;30.00;26.00;;;;;2.22;65.75;100726.06;6276381;20;2498342;-43
2023/02/28 06:57:02;;;;;;;;;18.00;16.33;;;;;2.15;65.71;100727.03;6280857;20;3556560;-44
2023/02/28 06:59:29;;;;;;;;;30.50;24.50;;;;;2.11;67.95;100733.25;6275678;20;2500407;-44
2023/02/28 07:01:58;;;;;;;;;29.50;21.50;;;;;1.53;66.78;100727.59;6279229;20;2835863;-45
2023/02/28 07:04:28;;;;;;;;;62.50;46.50;;;;;2.30;63.90;100740.13;6281934;20;2868008;-44
2023/02/28 07:06:57;;;;;;;;;40.00;32.50;;;;;2.29;63.48;100741.03;6284434;20;2859662;-43
2023/02/28 07:09:29;;;;;;;;;82.67;66.00;;;;;2.05;64.05;100739.47;6287132;20;3628396;-45
2023/02/28 07:11:57;;;;;;;;;27.50;25.50;;;;;2.26;64.23;100735.72;6317748;20;2500240;-43
2023/02/28 07:14:25;;;;;;;;;23.00;22.50;;;;;2.49;63.05;100738.13;6288327;20;2833652;-46
2023/02/28 07:16:53;;;;;;;;;17.50;15.00;;;;;2.25;63.23;100733.97;6289882;20;2802428;-43
2023/02/28 07:19:21;;;;;;;;;28.50;21.50;;;;;2.22;62.65;100738.44;6283348;20;2496167;-43
2023/02/28 07:21:50;;;;;;;;;21.80;14.20;;;;;2.06;61.81;100740.38;6309220;20;2815944;-43
2023/02/28 07:24:20;;;;;;;;;21.67;20.67;;;;;2.10;61.61;100744.72;6285826;20;3558607;-43
2023/02/28 07:26:48;;;;;;;;;28.50;20.50;;;;;2.35;61.07;100740.94;6284443;20;2500301;-44
2023/02/28 07:29:16;;;;;;;;;24.00;20.00;;;;;2.42;60.48;100741.72;6287597;20;2837807;-43
2023/02/28 07:31:43;;;;;;;;;31.00;19.50;;;;;2.37;59.08;100748.84;6288045;20;2840908;-44
2023/02/28 07:34:12;;;;;;;;;20.00;16.00;;;;;2.17;60.72;100747.31;6286298;20;2500481;-46
2023/02/28 07:36:40;;;;;;;;;26.33;24.33;;;;;2.35;60.43;100742.72;6286198;20;3581553;-45
2023/02/28 07:39:10;;;;;;;;;24.00;19.67;;;;;2.30;60.79;100740.13;6285825;20;3563799;-43
2023/02/28 07:41:43;;;;;;;;;21.50;21.50;;;;;2.37;60.00;100747.09;6283834;20;2832595;-45
2023/02/28 07:44:11;;;;;;;;;26.67;19.00;;;;;2.40;59.54;100744.41;6284623;20;3577400;-46
2023/02/28 07:46:39;;;;;;;;;30.50;25.00;;;;;2.57;58.82;100746.00;6318972;20;2842376;-45
2023/02/28 07:49:08;;;;;;;;;31.00;27.00;;;;;2.78;59.07;100745.72;6283523;20;2856549;-44
2023/02/28 07:51:36;;;;;;;;;25.00;25.00;;;;;2.53;59.02;100746.94;6283396;20;2841971;-46
2023/02/28 07:54:05;;;;;;;;;27.50;25.50;;;;;2.84;59.12;100750.06;6286394;20;2848336;-45
2023/02/28 07:56:33;;;;;;;;;29.00;21.50;;;;;2.73;59.71;100749.34;6286704;20;2844241;-46
2023/02/28 07:59:01;;;;;;;;;29.00;24.50;;;;;3.00;60.04;100750.75;6273275;20;2500331;-47
2023/02/28 08:01:30;;;;;;;;;26.67;18.00;;;;;3.09;57.89;100755.94;6279456;20;3571145;-44
2023/02/28 08:03:59;;;;;;;;;20.67;17.67;;;;;3.04;58.10;100744.50;6313450;20;3545065;-45
2023/02/28 08:06:27;;;;;;;;;26.50;20.00;;;;;3.25;57.41;100754.81;6286292;20;2833691;-45
2023/02/28 08:08:56;;;;;;;;;22.33;20.33;;;;;3.34;56.80;100755.59;6280879;20;3564874;-44
2023/02/28 08:11:25;;;;;;;;;21.33;16.00;;;;;3.06;57.98;100756.00;6312737;20;3550258;-44
2023/02/28 08:13:55;;;;;;;;;19.33;18.00;;;;;3.48;57.53;100758.94;6280690;20;3546202;-43
2023/02/28 08:16:23;;;;;;;;;21.00;17.00;;;;;3.40;57.00;100752.88;6284338;20;2836778;-43
2023/02/28 08:18:53;;;;;;;;;23.67;20.00;;;;;3.12;57.60;100753.25;6297262;20;3551342;-46
2023/02/28 08:21:22;;;;;;;;;55.00;44.50;;;;;3.33;56.84;100760.03;6310645;20;2500498;-44
2023/02/28 08:23:51;;;;;;;;;25.50;20.00;;;;;3.06;57.31;100763.94;6283149;20;2835719;-44
2023/02/28 08:26:21;;;;;;;;;34.33;23.67;;;;;3.54;57.51;100764.13;6285288;20;3597182;-42
2023/02/28 08:28:49;;;;;;;;;16.00;15.00;;;;;3.59;56.32;100764.06;6285389;20;2805488;-43
2023/02/28 08:31:18;;;;;;;;;25.00;25.00;;;;;3.40;56.87;100766.13;6277873;20;2504440;-42
2023/02/28 08:33:48;;;;;;;;;21.50;20.00;;;;;3.67;56.98;100763.03;6283928;20;2831679;-44
2023/02/28 08:36:17;;;;;;;;;24.00;19.67;;;;;3.50;56.06;100765.06;6280499;20;3554457;-45
2023/02/28 08:38:47;;;;;;;;;108.33;99.00;;;;;3.56;55.97;100775.63;6281815;20;3697215;-44
2023/02/28 08:41:15;;;;;;;;;21.50;20.00;;;;;3.71;56.02;100771.81;6279040;20;2500347;-46
2023/02/28 08:43:44;;;;;;;;;23.00;21.33;;;;;3.65;56.27;100766.63;6285960;20;3571215;-44
2023/02/28 08:46:13;;;;;;;;;30.50;25.50;;;;;3.79;55.48;100763.72;6279894;20;2500427;-46
2023/02/28 08:48:43;;;;;;;;;16.33;14.33;;;;;3.56;56.30;100767.66;6279992;20;3541978;-46
2023/02/28 08:51:21;;;;;;;;;166.33;159.67;;;;;3.43;57.54;100764.31;6312446;20;3723239;-45
2023/02/28 08:53:49;;;;;;;;;22.00;21.00;;;;;4.16;55.71;100767.53;6281129;20;2491936;-45
2023/02/28 08:56:18;;;;;;;;;25.33;17.67;;;;;4.40;55.36;100760.88;6278885;20;3572143;-45
2023/02/28 08:58:49;;;;;;;;;22.50;18.50;;;;;4.59;54.79;100764.06;6286284;20;2827446;-48
2023/02/28 09:01:27;;;;;;;;;17.00;12.50;;;;;4.51;55.71;100776.63;6278412;20;2812827;-46
2023/02/28 09:03:57;;;;;;;;;24.00;19.50;;;;;3.96;55.60;100767.88;6282906;20;2829514;-46
2023/02/28 09:06:28;;;;;;;;;18.00;16.00;;;;;4.11;56.97;100766.75;6282549;20;3540650;-46
2023/02/28 09:09:02;;;;;;;;;62.67;47.67;;;;;4.70;58.46;100765.63;6283209;20;2869216;-46
2023/02/28 09:11:30;;;;;;;;;17.50;16.00;;;;;4.43;55.49;100767.06;6313945;20;2815963;-45
2023/02/28 09:14:00;;;;;;;;;26.33;19.33;;;;;4.16;54.85;100764.88;6283792;20;3576387;-44
2023/02/28 09:16:28;;;;;;;;;13.00;8.50;;;;;3.97;56.71;100768.75;6283542;20;2754459;-45
2023/02/28 09:18:56;;;;;;;;;26.50;21.00;;;;;4.19;56.99;100774.56;6278857;20;2500333;-47
2023/02/28 09:21:26;;;;;;;;;28.67;23.33;;;;;4.04;56.78;100770.41;6281757;20;3583599;-44
2023/02/28 09:23:55;;;;;;;;;24.67;17.67;;;;;4.25;56.59;100777.13;6281058;20;3560671;-46
2023/02/28 09:26:27;;;;;;;;;25.33;21.33;;;;;4.78;54.99;100784.97;6314779;20;3565960;-45
2023/02/28 09:29:11;;;;;;;;;29.50;27.50;;;;;4.79;54.75;100779.63;6284388;20;2843122;-48
2023/02/28 09:31:39;;;;;;;;;19.00;16.67;;;;;4.60;54.72;100778.22;6280859;20;3554407;-44
2023/02/28 09:34:07;;;;;;;;;26.50;19.00;;;;;4.67;55.11;100779.00;6313168;20;2491902;-45
2023/02/28 09:36:39;;;;;;;;;18.33;17.00;;;;;4.40;56.07;100778.63;6279980;20;3572657;-45
2023/02/28 09:39:15;;;;;;;;;25.00;24.50;;;;;4.52;55.70;100781.03;6278132;20;2500348;-46
2023/02/28 09:41:50;;;;;;;;;26.00;23.50;;;;;4.38;55.77;100780.44;6282333;20;2848207;-47
2023/02/28 09:44:44;;;;;;;;;25.00;18.33;;;;;4.34;56.29;100774.28;6281324;20;3582576;-46
2023/02/28 09:47:47;;;;;;;;;19.00;18.00;;;;;4.64;57.24;100773.75;6277387;20;3541992;-46
2023/02/28 09:50:35;;;;;;;;;23.00;18.50;;;;;4.62;56.99;100761.34;6309272;20;2829569;-46
2023/02/28 09:53:26;;;;;;;;;79.33;64.00;;;;;5.58;54.17;100764.59;6279451;20;2878841;-45
2023/02/28 09:56:01;;;;;;;;;38.00;32.33;;;;;6.13;54.18;100760.56;6311106;20;2872380;-48
2023/02/28 09:58:53;;;;;;;;;34.00;26.67;;;;;6.40;52.87;100763.44;6313497;20;3594058;-48
2023/02/28 10:01:51;;;;;;;;;24.00;19.00;;;;;5.89;53.33;100754.94;6277087;20;3569177;-45
2023/02/28 10:04:51;;;;;;;;;27.00;25.00;;;;;5.43;53.91;100753.38;6312694;20;2850291;-45
2023/02/28 10:08:35;;;;;;;;;29.00;28.50;;;;;5.24;54.18;100749.41;6280052;20;2848223;-45
2023/02/28 10:11:14;;;;;;;;;20.00;15.00;;;;;5.41;53.77;100763.19;6277860;20;2808674;-47
2023/02/28 10:14:12;;;;;;;;;25.50;18.00;;;;;5.41;54.11;100749.88;6276250;20;2491971;-45
2023/02/28 10:16:56;;;;;;;;;31.50;26.00;;;;;5.37;54.40;100742.88;6276946;20;2856521;-45
2023/02/28 10:19:51;;;;;;;;;18.67;13.00;;;;;5.93;52.87;100747.75;6275710;20;3542685;-47
2023/02/28 10:22:45;;;;;;;;;21.00;20.67;;;;;5.82;53.43;100752.44;6310855;20;3568092;-44
2023/02/28 10:25:27;;;;;;;;;23.50;19.00;;;;;5.91;52.48;100754.91;6312139;20;2839913;-45
2023/02/28 10:28:12;;;;;;;;;21.00;19.50;;;;;6.24;52.89;100752.28;6280542;20;2500911;-46
2023/02/28 10:30:50;;;;;;;;;10.50;10.50;;;;;5.52;53.48;100751.41;6280706;20;2771093;-45
2023/02/28 10:33:34;;;;;;;;;19.67;15.67;;;;;5.50;54.49;100749.69;6280555;20;3571088;-45
2023/02/28 10:36:06;;;;;;;;;29.50;24.50;;;;;5.21;55.06;100741.47;6278375;20;2496284;-43
2023/02/28 10:38:40;;;;;;;;;22.33;20.33;;;;;5.37;55.41;100745.56;6284744;20;3581586;-44
2023/02/28 10:41:34;;;;;;;;;18.20;11.40;;;;;5.32;54.91;100744.78;6307976;20;2808624;-46
2023/02/28 10:44:22;;;;;;;;;19.50;16.00;;;;;5.46;55.66;100742.66;6287114;20;2500305;-46
2023/02/28 10:46:51;;;;;;;;;28.33;27.67;;;;;5.58;54.92;100745.94;6287632;20;3580494;-46
2023/02/28 10:49:28;;;;;;;;;14.00;11.00;;;;;5.69;54.73;100747.44;6283567;20;2812984;-46
2023/02/28 10:52:01;;;;;;;;;22.67;20.33;;;;;5.43;57.11;100744.53;6285432;20;3572214;-45
2023/02/28 10:54:35;;;;;;;;;14.00;14.00;;;;;5.68;55.27;100740.34;6285879;20;2800261;-46
2023/02/28 10:57:25;;;;;;;;;23.33;21.67;;;;;5.99;52.99;100736.09;6287355;20;3564878;-45
2023/02/28 11:00:18;;;;;;;;;20.80;14.60;;;;;5.71;54.37;100728.72;6312338;20;2811799;-43
2023/02/28 11:02:46;;;;;;;;;22.00;19.00;;;;;5.88;54.34;100734.53;6281763;20;2496110;-48
2023/02/28 11:05:30;;;;;;;;;26.00;22.33;;;;;6.18;53.16;100732.00;6287868;20;3582619;-47
2023/02/28 11:08:16;;;;;;;;;23.00;21.67;;;;;6.38;52.28;100723.47;6284553;20;3577331;-46
2023/02/28 11:11:00;;;;;;;;;40.33;29.67;;;;;6.54;53.16;100730.13;6284394;20;3614978;-47
2023/02/28 11:13:35;;;;;;;;;28.33;21.00;;;;;6.19;54.02;100727.53;6314679;20;3596175;-46
2023/02/28 11:16:11;;;;;;;;;26.50;22.50;;;;;5.91;54.09;100733.56;6283041;20;2834695;-45
2023/02/28 11:18:55;;;;;;;;;25.00;21.00;;;;;5.80;55.16;100735.66;6284259;20;2834807;-46
2023/02/28 11:21:40;;;;;;;;;23.00;20.50;;;;;5.70;53.88;100724.34;6279734;20;2500391;-46
2023/02/28 11:24:30;;;;;;;;;13.50;9.00;;;;;5.29;55.14;100728.84;6286275;20;2764886;-47
2023/02/28 11:26:58;;;;;;;;;21.50;19.50;;;;;5.38;56.26;100722.47;6287042;20;2833676;-46
2023/02/28 11:29:32;;;;;;;;;24.00;18.33;;;;;5.37;56.23;100713.59;6286562;20;3562758;-48
2023/02/28 11:32:22;;;;;;;;;22.00;19.00;;;;;5.36;56.52;100727.81;6288131;20;3563804;-46
2023/02/28 11:35:36;;;;;;;;;19.50;17.00;;;;;5.66;56.78;100714.66;6288796;20;2824231;-47
2023/02/28 11:38:12;;;;;;;;;21.67;20.00;;;;;5.71;55.16;100716.31;6287007;20;3561754;-47